Página principal
METAR-TAF:

METAR-TAF

Aeroportos :

Aeroporto de Madrid-Barajas

Madrid, Espanha

latitude: 40-27N, longitude: 003-33W, altura: 609 m

Observação actual do tempo

O boletim foi feito há 15 minutos, às 18:30 UTC
Vento 2 kt com direcção variável
Temperatura 13°C
Humidade 38%
Pressão 1027 hPa
Visibilidade 10 km ou mais
sem nuvens abaixo de 1500 metros e sem cumulonimbus

METAR: LEMD 231830Z VRB02KT CAVOK 13/M01 Q1027 NOSIG

Hora: 19:45 (18:45 UTC)

Previsão

O boletim foi feito há 1 hora e 45 minutos, às 17:00 UTC
Previsão válida de 23 às 18 UTC a 24 às 24 UTC
Vento 3 kt com direcção variável
Visibilidade 10 km ou mais
sem nuvens abaixo de 1500 metros e sem cumulonimbus
Tornando-se
de 23 às 18 UTC a 23 às 19 UTC
Vento 6 kt de nor-nordeste
Tornando-se
de 24 às 09 UTC a 24 às 10 UTC
Vento 4 kt com direcção variável

TAF: LEMD 231700Z 2318/2424 VRB03KT CAVOK TX20/2415Z TN02/2406Z BECMG 2318/2319 02006KT BECMG 2409/2410 VRB04KT

Observações e previsões do tempo de mais de 4000 aeroportos (mensagens METAR e TAF).

As estações disponíveis são os pontos amarelos e vermelhos sobre o mapa.

Mova o rato sobre o mapa para ver o nome da estação.

Depois clique no ponto para visualizar as observações e previsões meteorológicas.

Para alterar o mapa : clique nos botões verdes com uma cruz preta para aumentar o zoom; no botão verde com uma pitada de zoom; ou nas setas verdes para mapas adjacentes.


METAR-TAF: